Capitol Logistics 339


KMIA
Miami International Airport
Miami, Florida, US
TBPB
Grantley Adams International Airport
Bridgetown, , BB

Activity Log

Date Flight Route Aircraft Duration
08/31/2020 CPX339 SKIPS2 SKIPS Y290 HAGIT Y421 MEEGL ILURI UA555 BGI B763 3h 41m
04/24/2020 CPX339 JONZI2 SKIPS Y290 HAGIT Y308 ACONY Y185 ILURI UA555 FOF BENUK B763 3h 22m
02/04/2019 CPX339 SKIPS2 SKIPS BR53V ZQA A555 ILURI UA555 BGI B763 3h 14m

Route Details

Aircraft Information
Primary: Boeing 767-300BDSF
Backup: Not Available
Route Data
Distance: 1402nm
Sched. Duration: 2h 25m
Avg. Duration: 3h 26m (+101m)
Times Flown: 3
Recm'd Route: SKIPS2 SKIPS Y290 HAGIT Y421 MEEGL ILURI UA555 BGI
Planned Altitude: 37,000ft
Origin Wx: KMIA 281953Z 13012KT 10SM SCT030 SCT250 31/23 A2997 RMK AO2 SLP148 T03060228
Dest. Wx: TBPB 282000Z 08018KT 9000 -RA FEW008CB BKN016 25/23 Q1008 TEMPO 5000 SHRA
Notes:

Financial History
Total Freight: 306,113lbs
Average Load: 102,038lbs/flt
Fuel Used: 111,089lbs
Avg. Fuel Used: 37,030lbs/flt
Fuel Expense: $136,639
Avg. Fuel Expense: $45,546
Avg. Fuel Cost: $1.23/lbs
Total Gross Income: $415,168
Pilot Pay: $637
Total Expenses: $44,994
Total Revenue: $231,143
Average Revenue: $138,389.40